createdAt,value
2022-11-04T00:01:34.329Z,13.22
2022-11-04T00:04:07.052Z,12.43
2022-11-04T00:06:39.867Z,12.65
2022-11-04T00:09:18.900Z,10.45
2022-11-04T00:12:09.464Z,11.95
2022-11-04T00:14:42.419Z,10.63
2022-11-04T00:17:22.508Z,12.15
2022-11-04T00:20:13.801Z,14.33
2022-11-04T00:23:07.493Z,12.90
2022-11-04T00:25:58.281Z,11.30
2022-11-04T00:28:46.013Z,11.18
2022-11-04T00:31:36.285Z,12.65
2022-11-04T00:34:09.082Z,10.68
2022-11-04T00:36:42.091Z,12.00
2022-11-04T00:39:14.806Z,12.23
2022-11-04T00:41:48.543Z,9.95
2022-11-04T00:44:21.021Z,12.68
2022-11-04T00:46:53.532Z,10.43
2022-11-04T00:49:26.295Z,13.83
2022-11-04T00:51:58.925Z,13.53
2022-11-04T00:54:31.469Z,14.00
2022-11-04T00:57:03.967Z,11.33
2022-11-04T00:59:36.581Z,8.83
2022-11-04T01:02:10.107Z,11.55
2022-11-04T01:04:42.578Z,11.15
2022-11-04T01:07:15.081Z,14.43
2022-11-04T01:09:47.504Z,10.43
2022-11-04T01:12:20.232Z,11.78
2022-11-04T01:14:53.378Z,10.98
2022-11-04T01:17:26.144Z,10.20
2022-11-04T01:19:58.743Z,10.08
2022-11-04T01:22:31.564Z,11.00
2022-11-04T01:25:04.660Z,8.50
2022-11-04T01:27:37.347Z,10.72
2022-11-04T01:30:11.394Z,10.23
2022-11-04T01:32:43.947Z,12.90
2022-11-04T01:35:16.298Z,12.35
2022-11-04T01:37:48.728Z,9.88
2022-11-04T01:40:21.144Z,11.48
2022-11-04T01:42:54.096Z,10.03
2022-11-04T01:45:26.697Z,12.20
2022-11-04T01:48:03.626Z,11.50
2022-11-04T01:50:36.021Z,10.20
2022-11-04T01:53:29.676Z,7.37
2022-11-04T01:56:08.339Z,11.08
2022-11-04T01:58:45.670Z,7.87
2022-11-04T02:01:18.905Z,9.95
2022-11-04T02:03:59.773Z,13.13
2022-11-04T02:06:32.469Z,11.40
2022-11-04T02:09:05.247Z,11.88
2022-11-04T02:11:55.371Z,11.43
2022-11-04T02:14:29.716Z,8.03
2022-11-04T02:17:21.796Z,11.50
2022-11-04T02:20:07.710Z,13.05
2022-11-04T02:23:19.771Z,11.57
2022-11-04T02:26:18.166Z,12.00
2022-11-04T02:29:45.344Z,9.28
2022-11-04T02:32:39.093Z,11.60
2022-11-04T02:35:19.784Z,12.73
2022-11-04T02:38:04.051Z,8.63
2022-11-04T02:41:03.398Z,13.45
2022-11-04T02:43:52.445Z,12.03
2022-11-04T02:46:54.587Z,7.87
2022-11-04T02:49:31.529Z,7.85
2022-11-04T02:52:10.873Z,9.43
2022-11-04T02:54:56.303Z,15.03
2022-11-04T02:57:31.703Z,16.40
2022-11-04T03:00:09.819Z,10.78
2022-11-04T03:03:06.260Z,10.75
2022-11-04T03:05:40.153Z,10.78
2022-11-04T03:08:29.613Z,10.32
2022-11-04T03:11:14.829Z,11.57
2022-11-04T03:14:08.250Z,9.40
2022-11-04T03:16:51.105Z,11.08
2022-11-04T03:19:46.527Z,11.55
2022-11-04T03:22:20.857Z,11.50
2022-11-04T03:24:53.997Z,10.50
2022-11-04T03:27:40.157Z,9.88
2022-11-04T03:33:15.602Z,7.83
2022-11-04T03:35:48.111Z,11.28
2022-11-04T03:38:22.874Z,10.08
2022-11-04T03:40:55.302Z,11.73
2022-11-04T03:43:28.839Z,11.45
2022-11-04T03:46:01.228Z,9.93
2022-11-04T03:48:33.852Z,11.33
2022-11-04T03:51:06.816Z,12.50
2022-11-04T03:53:39.214Z,11.08
2022-11-04T03:56:31.481Z,8.63
2022-11-04T03:59:32.207Z,13.05
2022-11-04T04:02:12.303Z,9.68
2022-11-04T04:05:03.064Z,10.28
2022-11-04T04:07:47.937Z,10.93
2022-11-04T04:10:42.452Z,12.63
2022-11-04T04:13:42.270Z,17.57
2022-11-04T04:16:40.534Z,9.18
2022-11-04T04:19:17.394Z,12.33
2022-11-04T04:22:01.375Z,12.78
2022-11-04T04:24:54.841Z,12.45
2022-11-04T04:27:33.042Z,11.50
2022-11-04T04:30:13.827Z,12.40
2022-11-04T04:33:00.811Z,10.03
2022-11-04T04:35:43.490Z,9.53
2022-11-04T04:38:45.377Z,13.45
2022-11-04T04:41:48.146Z,10.08
2022-11-04T04:44:44.024Z,13.48
2022-11-04T04:47:23.547Z,15.18
2022-11-04T04:50:01.063Z,15.43
2022-11-04T04:52:43.940Z,12.85
2022-11-04T04:55:16.710Z,11.63
2022-11-04T04:57:49.445Z,19.00
2022-11-04T05:00:22.257Z,15.58
2022-11-04T05:02:54.875Z,17.15
2022-11-04T05:05:27.377Z,15.90
2022-11-04T05:08:08.718Z,13.08
2022-11-04T05:10:41.661Z,21.20
2022-11-04T05:13:26.768Z,13.85
2022-11-04T05:16:04.268Z,16.87
2022-11-04T05:18:37.465Z,13.72
2022-11-04T05:21:13.232Z,13.90
2022-11-04T05:23:45.783Z,17.57
2022-11-04T05:26:18.913Z,18.17
2022-11-04T05:28:52.841Z,13.95
2022-11-04T05:31:25.357Z,14.25
2022-11-04T05:34:00.033Z,16.40
2022-11-04T05:36:34.307Z,12.40
2022-11-04T05:39:07.092Z,18.35
2022-11-04T05:41:39.565Z,14.13
2022-11-04T05:44:13.140Z,17.80
2022-11-04T05:46:45.800Z,13.50
2022-11-04T05:49:19.367Z,16.37
2022-11-04T05:51:52.184Z,16.93
2022-11-04T05:54:24.812Z,18.23
2022-11-04T05:56:57.343Z,16.48
2022-11-04T05:59:29.812Z,24.23
2022-11-04T06:02:02.692Z,16.50
2022-11-04T06:04:36.271Z,16.57
2022-11-04T06:07:09.564Z,16.48
2022-11-04T06:09:42.155Z,21.23
2022-11-04T06:12:16.979Z,16.42
2022-11-04T06:14:50.061Z,15.25
2022-11-04T06:17:23.834Z,16.45
2022-11-04T06:19:56.248Z,19.73
2022-11-04T06:22:30.267Z,16.65
2022-11-04T06:25:03.047Z,15.63
2022-11-04T06:27:36.266Z,19.27
2022-11-04T06:30:10.448Z,15.23
2022-11-04T06:32:43.701Z,16.62
2022-11-04T06:35:16.340Z,18.42
2022-11-04T06:37:48.839Z,15.58
2022-11-04T06:40:21.906Z,14.80
2022-11-04T06:42:54.613Z,14.47
2022-11-04T06:45:27.140Z,19.02
2022-11-04T06:47:59.642Z,17.73
2022-11-04T06:50:32.088Z,18.48
2022-11-04T06:53:04.880Z,16.48
2022-11-04T06:55:37.270Z,17.20
2022-11-04T06:58:10.243Z,14.60
2022-11-04T07:00:42.759Z,17.40
2022-11-04T07:03:15.837Z,16.77
2022-11-04T07:05:48.647Z,13.28
2022-11-04T07:08:21.154Z,13.88
2022-11-04T07:10:55.344Z,16.95
2022-11-04T07:13:27.821Z,15.95
2022-11-04T09:14:19.332Z,11.90
2022-11-04T09:16:51.765Z,11.08
2022-11-04T09:19:26.836Z,10.20
2022-11-04T09:21:59.327Z,12.70
2022-11-04T09:24:32.199Z,13.48
2022-11-04T09:27:06.532Z,15.58
2022-11-04T09:29:39.028Z,13.58
2022-11-04T09:32:11.473Z,14.28
2022-11-04T09:34:44.082Z,16.27
2022-11-04T09:37:17.305Z,14.07
2022-11-04T09:39:53.718Z,14.75
2022-11-04T09:43:10.171Z,17.65
2022-11-04T09:45:43.817Z,11.88
2022-11-04T09:48:42.783Z,25.77
2022-11-04T09:51:39.944Z,17.37
2022-11-04T09:54:03.506Z,13.53
2022-11-04T09:56:42.358Z,17.65
2022-11-04T09:59:18.825Z,14.75
2022-11-04T10:02:08.487Z,17.55
2022-11-04T10:05:10.020Z,13.72
2022-11-04T10:08:13.961Z,15.58
2022-11-04T13:36:24.685Z,12.78
2022-11-04T13:39:29.582Z,14.75
2022-11-04T13:42:40.446Z,14.18
2022-11-04T13:45:17.849Z,13.28
2022-11-04T13:47:56.677Z,14.78
2022-11-04T13:53:20.356Z,15.18
2022-11-04T13:55:53.193Z,15.38
2022-11-04T13:58:28.667Z,16.85
2022-11-04T14:01:25.953Z,15.83
2022-11-04T14:04:31.019Z,14.93
2022-11-04T14:07:05.793Z,15.45
2022-11-04T14:09:51.037Z,14.95
2022-11-04T14:12:33.407Z,13.32
2022-11-04T14:15:13.830Z,13.70
2022-11-04T14:17:51.809Z,16.17
2022-11-04T14:20:32.874Z,15.38
2022-11-04T14:23:05.884Z,15.28
2022-11-04T14:25:42.129Z,17.10
2022-11-04T14:28:27.647Z,14.45
2022-11-04T14:31:16.907Z,14.10
2022-11-04T14:33:58.055Z,15.30
2022-11-04T14:39:17.845Z,15.72
2022-11-04T14:42:01.951Z,14.43
2022-11-04T14:44:39.500Z,16.10
2022-11-04T14:47:37.530Z,14.45
2022-11-04T14:50:16.302Z,15.63
2022-11-04T14:52:56.072Z,15.35
2022-11-04T14:55:31.980Z,15.45
2022-11-04T14:58:24.467Z,14.63
2022-11-04T15:01:00.070Z,13.32
2022-11-04T15:04:10.872Z,13.35
2022-11-04T15:06:13.638Z,17.57
2022-11-04T15:08:47.303Z,15.70
2022-11-04T15:11:40.893Z,12.93
2022-11-04T15:14:27.155Z,12.95
2022-11-04T15:17:00.457Z,13.32
2022-11-04T15:19:35.075Z,16.50
2022-11-04T15:22:08.187Z,12.65
2022-11-04T15:24:40.501Z,14.45
2022-11-04T15:27:17.572Z,15.85
2022-11-04T15:30:02.833Z,18.60
2022-11-04T15:32:35.750Z,14.60
2022-11-04T15:35:09.882Z,17.02
2022-11-04T15:37:43.212Z,14.35
2022-11-04T15:40:16.146Z,15.98
2022-11-04T15:42:49.939Z,18.02
2022-11-04T15:45:32.805Z,18.25
2022-11-04T15:48:40.775Z,13.88
2022-11-04T15:51:23.199Z,14.90
2022-11-04T15:54:07.548Z,14.63
2022-11-04T15:56:54.735Z,21.42
2022-11-04T15:59:33.719Z,17.45
2022-11-04T16:02:08.322Z,15.58
2022-11-04T16:04:45.337Z,17.25
2022-11-04T16:07:23.134Z,17.23
2022-11-04T16:09:56.184Z,13.98
2022-11-04T16:12:44.588Z,13.88
2022-11-04T16:15:51.334Z,14.05
2022-11-04T16:18:46.455Z,14.85
2022-11-04T16:21:34.710Z,14.90
2022-11-04T16:24:26.936Z,15.40
2022-11-04T16:26:59.773Z,13.80
2022-11-04T16:29:34.772Z,12.45
2022-11-04T16:32:22.462Z,16.37
2022-11-04T16:35:02.953Z,14.68
2022-11-04T16:37:53.141Z,14.45
2022-11-04T16:40:26.060Z,17.15
2022-11-04T16:42:58.490Z,14.65
2022-11-04T16:45:38.718Z,16.93
2022-11-04T16:48:14.374Z,15.13
2022-11-04T16:50:47.130Z,16.97
2022-11-04T16:53:19.517Z,14.03
2022-11-04T16:55:52.503Z,16.12
2022-11-04T16:58:24.927Z,13.68
2022-11-04T17:01:02.529Z,14.60
2022-11-04T17:03:31.697Z,17.48
2022-11-04T17:06:04.544Z,14.38
2022-11-04T17:08:37.015Z,14.10
2022-11-04T17:11:10.611Z,19.73
2022-11-04T17:13:43.071Z,15.00
2022-11-04T17:16:15.490Z,16.73
2022-11-04T17:18:48.290Z,16.90
2022-11-04T17:21:21.161Z,17.23
2022-11-04T17:23:55.233Z,33.70
2022-11-04T17:26:28.467Z,22.17
2022-11-04T17:29:00.977Z,29.40
2022-11-04T17:31:33.785Z,19.35
2022-11-04T17:34:06.318Z,19.45
2022-11-04T17:36:39.329Z,19.05
2022-11-04T17:39:11.726Z,19.80
2022-11-04T17:42:02.398Z,17.82
2022-11-04T17:44:34.957Z,21.77
2022-11-04T17:47:07.741Z,18.35
2022-11-04T17:49:41.673Z,17.48
2022-11-04T17:52:14.330Z,16.65
2022-11-04T17:54:47.374Z,17.07
2022-11-04T17:57:19.752Z,19.35
2022-11-04T17:59:52.467Z,19.20
2022-11-04T18:02:24.974Z,18.05
2022-11-04T18:04:57.717Z,16.55
2022-11-04T18:07:31.168Z,17.87
2022-11-04T18:10:03.909Z,27.48
2022-11-04T18:12:39.439Z,17.47
2022-11-04T18:15:16.421Z,20.32
2022-11-04T18:17:50.944Z,20.12
2022-11-04T18:20:23.369Z,20.08
2022-11-04T18:22:56.596Z,22.52
2022-11-04T18:25:30.555Z,24.05
2022-11-04T18:28:03.016Z,21.87
2022-11-04T18:30:35.405Z,21.62
2022-11-04T18:33:08.124Z,21.55
2022-11-04T18:35:40.704Z,21.52
2022-11-04T18:38:13.244Z,20.75
2022-11-04T18:40:45.612Z,22.95
2022-11-04T18:43:18.177Z,20.48
2022-11-04T18:45:50.974Z,22.67
2022-11-04T18:48:23.580Z,22.90
2022-11-04T18:50:55.959Z,23.60
2022-11-04T18:53:28.720Z,19.05
2022-11-04T18:56:08.050Z,17.15
2022-11-04T18:58:42.105Z,18.50
2022-11-04T19:01:24.438Z,18.87
2022-11-04T19:03:57.216Z,17.32
2022-11-04T21:03:00.252Z,21.73
2022-11-04T21:05:32.863Z,22.62
2022-11-04T21:08:05.881Z,24.95
2022-11-04T21:10:38.575Z,21.65
2022-11-04T21:13:12.072Z,20.72
2022-11-04T21:15:44.777Z,20.88
2022-11-04T21:18:17.666Z,20.68
2022-11-04T21:20:52.142Z,21.48
2022-11-04T21:23:25.096Z,21.90
2022-11-04T21:26:01.166Z,22.45
2022-11-04T21:28:33.844Z,21.05
2022-11-04T21:31:09.113Z,20.48
2022-11-04T21:33:41.619Z,19.65
2022-11-04T21:36:14.589Z,22.17
2022-11-04T21:38:47.473Z,22.82
2022-11-04T21:41:24.503Z,30.88
2022-11-04T21:44:02.031Z,23.62
2022-11-04T21:46:35.720Z,25.57
2022-11-04T21:49:08.479Z,20.43
2022-11-04T21:51:41.081Z,29.30
2022-11-04T21:54:13.517Z,30.55
2022-11-04T21:56:47.682Z,33.40
2022-11-04T21:59:21.049Z,21.97
2022-11-04T22:01:53.706Z,22.55
2022-11-04T22:04:27.384Z,20.40
2022-11-04T22:07:01.119Z,20.87
2022-11-04T22:09:33.955Z,19.80
2022-11-04T22:12:07.413Z,20.47
2022-11-04T22:14:40.444Z,22.30
2022-11-04T22:17:13.798Z,19.07
2022-11-04T22:19:46.949Z,20.35
2022-11-04T22:22:19.653Z,19.52
2022-11-04T22:24:53.956Z,19.52
2022-11-04T22:27:26.876Z,21.30
2022-11-04T22:29:59.556Z,21.20
2022-11-04T22:32:32.423Z,19.75
2022-11-04T22:35:04.924Z,18.37
2022-11-04T22:37:37.601Z,24.37
2022-11-04T22:40:12.207Z,22.48
2022-11-04T22:42:44.694Z,23.05
2022-11-04T22:45:17.133Z,22.17
2022-11-04T22:47:50.393Z,24.40
2022-11-04T22:50:23.132Z,22.77
2022-11-04T22:52:55.723Z,21.40
2022-11-04T22:55:28.123Z,22.58
2022-11-04T22:58:00.975Z,25.32
2022-11-04T23:00:33.681Z,25.45
2022-11-04T23:03:06.567Z,27.07
2022-11-04T23:05:40.842Z,29.20
2022-11-04T23:08:13.454Z,26.50
2022-11-04T23:11:05.365Z,29.90
2022-11-04T23:13:42.249Z,28.10
2022-11-04T23:16:41.782Z,31.82
2022-11-04T23:19:14.328Z,29.80
2022-11-04T23:22:04.737Z,33.30
2022-11-04T23:24:54.767Z,31.23
2022-11-04T23:27:45.309Z,32.00
2022-11-04T23:30:25.396Z,31.25
2022-11-04T23:33:07.913Z,27.65
2022-11-04T23:36:01.144Z,34.40
2022-11-04T23:38:35.476Z,29.90
2022-11-04T23:41:26.898Z,29.85
2022-11-04T23:43:59.254Z,31.68
2022-11-04T23:46:49.243Z,32.67
2022-11-04T23:49:39.717Z,37.20
2022-11-04T23:52:30.066Z,32.03
2022-11-04T23:55:20.839Z,32.95
2022-11-04T23:58:11.004Z,36.73
